sensor_id;sensor_type;location;lat;lon;timestamp;P1;durP1;ratioP1;P2;durP2;ratioP2
77152;SDS011;66124;51.146;17.072;2023-04-15T00:02:14;8.60;;;5.40;;
77152;SDS011;66124;51.146;17.072;2023-04-15T00:04:44;9.30;;;5.40;;
77152;SDS011;66124;51.146;17.072;2023-04-15T00:07:14;8.30;;;5.80;;
77152;SDS011;66124;51.146;17.072;2023-04-15T00:09:44;9.50;;;6.90;;
77152;SDS011;66124;51.146;17.072;2023-04-15T00:12:13;10.00;;;6.70;;
77152;SDS011;66124;51.146;17.072;2023-04-15T00:14:42;10.10;;;6.40;;
77152;SDS011;66124;51.146;17.072;2023-04-15T00:17:12;6.40;;;4.50;;
77152;SDS011;66124;51.146;17.072;2023-04-15T00:19:41;5.60;;;4.50;;
77152;SDS011;66124;51.146;17.072;2023-04-15T00:28:17;9.40;;;6.80;;
77152;SDS011;66124;51.146;17.072;2023-04-15T00:30:46;8.40;;;5.80;;
77152;SDS011;66124;51.146;17.072;2023-04-15T00:33:16;8.20;;;5.20;;
77152;SDS011;66124;51.146;17.072;2023-04-15T00:35:46;7.20;;;5.30;;
77152;SDS011;66124;51.146;17.072;2023-04-15T00:38:15;9.20;;;6.40;;
77152;SDS011;66124;51.146;17.072;2023-04-15T00:40:45;10.10;;;6.20;;
77152;SDS011;66124;51.146;17.072;2023-04-15T00:43:15;10.20;;;6.60;;
77152;SDS011;66124;51.146;17.072;2023-04-15T00:45:44;7.70;;;5.30;;
77152;SDS011;66124;51.146;17.072;2023-04-15T00:48:13;9.80;;;6.10;;
77152;SDS011;66124;51.146;17.072;2023-04-15T00:50:44;8.00;;;5.50;;
77152;SDS011;66124;51.146;17.072;2023-04-15T00:53:13;10.30;;;6.40;;
77152;SDS011;66124;51.146;17.072;2023-04-15T00:55:42;9.60;;;6.10;;
77152;SDS011;66124;51.146;17.072;2023-04-15T00:58:12;9.10;;;6.40;;
77152;SDS011;66124;51.146;17.072;2023-04-15T01:00:41;5.70;;;4.00;;
77152;SDS011;66124;51.146;17.072;2023-04-15T01:03:12;7.50;;;5.30;;
77152;SDS011;66124;51.146;17.072;2023-04-15T01:05:41;8.90;;;6.10;;
77152;SDS011;66124;51.146;17.072;2023-04-15T01:08:11;7.30;;;5.80;;
77152;SDS011;66124;51.146;17.072;2023-04-15T01:10:40;7.30;;;5.50;;
77152;SDS011;66124;51.146;17.072;2023-04-15T01:13:10;9.80;;;6.50;;
77152;SDS011;66124;51.146;17.072;2023-04-15T01:15:39;8.50;;;6.30;;
77152;SDS011;66124;51.146;17.072;2023-04-15T01:18:09;8.10;;;5.50;;
77152;SDS011;66124;51.146;17.072;2023-04-15T01:20:38;9.40;;;5.70;;
77152;SDS011;66124;51.146;17.072;2023-04-15T01:23:08;11.20;;;6.90;;
77152;SDS011;66124;51.146;17.072;2023-04-15T01:25:37;10.10;;;6.90;;
77152;SDS011;66124;51.146;17.072;2023-04-15T01:28:08;7.10;;;5.50;;
77152;SDS011;66124;51.146;17.072;2023-04-15T01:30:38;8.80;;;6.60;;
77152;SDS011;66124;51.146;17.072;2023-04-15T01:33:07;6.30;;;4.60;;
77152;SDS011;66124;51.146;17.072;2023-04-15T01:35:36;8.40;;;5.60;;
77152;SDS011;66124;51.146;17.072;2023-04-15T01:40:34;3.00;;;1.80;;
77152;SDS011;66124;51.146;17.072;2023-04-15T01:48:13;9.00;;;6.10;;
77152;SDS011;66124;51.146;17.072;2023-04-15T01:50:43;8.60;;;5.80;;
77152;SDS011;66124;51.146;17.072;2023-04-15T01:53:12;8.30;;;5.80;;
77152;SDS011;66124;51.146;17.072;2023-04-15T01:55:42;6.70;;;4.60;;
77152;SDS011;66124;51.146;17.072;2023-04-15T01:58:11;9.00;;;5.70;;
77152;SDS011;66124;51.146;17.072;2023-04-15T02:00:42;8.40;;;5.90;;
77152;SDS011;66124;51.146;17.072;2023-04-15T02:03:11;8.70;;;6.00;;
77152;SDS011;66124;51.146;17.072;2023-04-15T02:05:41;7.80;;;5.60;;
77152;SDS011;66124;51.146;17.072;2023-04-15T02:08:10;9.70;;;6.80;;
77152;SDS011;66124;51.146;17.072;2023-04-15T02:10:39;9.10;;;5.60;;
77152;SDS011;66124;51.146;17.072;2023-04-15T02:13:09;8.60;;;5.60;;
77152;SDS011;66124;51.146;17.072;2023-04-15T02:15:38;10.70;;;6.10;;
77152;SDS011;66124;51.146;17.072;2023-04-15T02:18:08;8.80;;;6.00;;
77152;SDS011;66124;51.146;17.072;2023-04-15T02:20:37;11.20;;;6.90;;
77152;SDS011;66124;51.146;17.072;2023-04-15T02:23:06;8.50;;;5.50;;
77152;SDS011;66124;51.146;17.072;2023-04-15T02:25:36;9.10;;;5.70;;
77152;SDS011;66124;51.146;17.072;2023-04-15T02:28:05;8.10;;;5.60;;
77152;SDS011;66124;51.146;17.072;2023-04-15T02:30:35;9.40;;;5.90;;
77152;SDS011;66124;51.146;17.072;2023-04-15T02:33:04;8.60;;;5.60;;
77152;SDS011;66124;51.146;17.072;2023-04-15T02:35:33;10.70;;;5.60;;
77152;SDS011;66124;51.146;17.072;2023-04-15T02:38:03;9.30;;;6.30;;
77152;SDS011;66124;51.146;17.072;2023-04-15T02:40:32;9.90;;;6.20;;
77152;SDS011;66124;51.146;17.072;2023-04-15T02:43:02;9.10;;;6.40;;
77152;SDS011;66124;51.146;17.072;2023-04-15T02:45:31;10.60;;;6.40;;
77152;SDS011;66124;51.146;17.072;2023-04-15T02:48:00;10.80;;;6.20;;
77152;SDS011;66124;51.146;17.072;2023-04-15T02:50:30;8.40;;;5.80;;
77152;SDS011;66124;51.146;17.072;2023-04-15T02:52:59;7.20;;;6.10;;
77152;SDS011;66124;51.146;17.072;2023-04-15T02:55:29;10.20;;;6.70;;
77152;SDS011;66124;51.146;17.072;2023-04-15T03:00:26;9.60;;;6.10;;
77152;SDS011;66124;51.146;17.072;2023-04-15T03:08:03;11.20;;;7.40;;
77152;SDS011;66124;51.146;17.072;2023-04-15T03:10:33;9.50;;;6.50;;
77152;SDS011;66124;51.146;17.072;2023-04-15T03:13:02;10.90;;;6.90;;
77152;SDS011;66124;51.146;17.072;2023-04-15T03:15:32;9.70;;;6.20;;
77152;SDS011;66124;51.146;17.072;2023-04-15T03:18:01;10.40;;;6.60;;
77152;SDS011;66124;51.146;17.072;2023-04-15T03:20:31;8.80;;;6.50;;
77152;SDS011;66124;51.146;17.072;2023-04-15T03:23:01;9.80;;;6.30;;
77152;SDS011;66124;51.146;17.072;2023-04-15T03:25:30;9.80;;;6.30;;
77152;SDS011;66124;51.146;17.072;2023-04-15T03:28:00;12.20;;;7.40;;
77152;SDS011;66124;51.146;17.072;2023-04-15T03:30:29;9.50;;;6.90;;
77152;SDS011;66124;51.146;17.072;2023-04-15T03:32:59;12.00;;;7.20;;
77152;SDS011;66124;51.146;17.072;2023-04-15T03:35:28;9.90;;;6.30;;
77152;SDS011;66124;51.146;17.072;2023-04-15T03:37:57;12.40;;;7.90;;
77152;SDS011;66124;51.146;17.072;2023-04-15T03:40:27;11.70;;;7.70;;
77152;SDS011;66124;51.146;17.072;2023-04-15T03:42:56;13.30;;;7.20;;
77152;SDS011;66124;51.146;17.072;2023-04-15T03:45:26;13.10;;;8.60;;
77152;SDS011;66124;51.146;17.072;2023-04-15T03:47:55;12.60;;;7.20;;
77152;SDS011;66124;51.146;17.072;2023-04-15T03:50:25;10.50;;;7.10;;
77152;SDS011;66124;51.146;17.072;2023-04-15T03:52:54;11.40;;;6.80;;
77152;SDS011;66124;51.146;17.072;2023-04-15T03:55:24;13.10;;;7.40;;
77152;SDS011;66124;51.146;17.072;2023-04-15T03:57:53;11.60;;;7.60;;
77152;SDS011;66124;51.146;17.072;2023-04-15T04:00:23;12.30;;;7.20;;
77152;SDS011;66124;51.146;17.072;2023-04-15T04:02:52;11.10;;;7.10;;
77152;SDS011;66124;51.146;17.072;2023-04-15T04:05:22;11.20;;;7.00;;
77152;SDS011;66124;51.146;17.072;2023-04-15T04:07:51;13.60;;;7.60;;
77152;SDS011;66124;51.146;17.072;2023-04-15T04:10:20;10.80;;;6.40;;
77152;SDS011;66124;51.146;17.072;2023-04-15T04:12:50;10.60;;;6.40;;
77152;SDS011;66124;51.146;17.072;2023-04-15T04:15:19;11.00;;;6.30;;
77152;SDS011;66124;51.146;17.072;2023-04-15T04:27:51;10.00;;;6.20;;
77152;SDS011;66124;51.146;17.072;2023-04-15T04:30:21;7.80;;;5.40;;
77152;SDS011;66124;51.146;17.072;2023-04-15T04:32:50;9.80;;;5.60;;
77152;SDS011;66124;51.146;17.072;2023-04-15T04:35:20;8.30;;;4.60;;
77152;SDS011;66124;51.146;17.072;2023-04-15T04:37:49;8.40;;;5.40;;
77152;SDS011;66124;51.146;17.072;2023-04-15T04:40:20;7.80;;;4.90;;
77152;SDS011;66124;51.146;17.072;2023-04-15T04:42:50;6.60;;;3.70;;
77152;SDS011;66124;51.146;17.072;2023-04-15T04:45:19;5.60;;;3.80;;
77152;SDS011;66124;51.146;17.072;2023-04-15T04:47:49;4.50;;;3.30;;
77152;SDS011;66124;51.146;17.072;2023-04-15T04:50:18;5.40;;;3.40;;
77152;SDS011;66124;51.146;17.072;2023-04-15T04:52:47;4.90;;;3.50;;
77152;SDS011;66124;51.146;17.072;2023-04-15T04:55:17;4.30;;;2.90;;
77152;SDS011;66124;51.146;17.072;2023-04-15T04:57:47;4.30;;;2.60;;
77152;SDS011;66124;51.146;17.072;2023-04-15T05:00:17;4.80;;;2.30;;
77152;SDS011;66124;51.146;17.072;2023-04-15T05:02:47;3.40;;;2.00;;
77152;SDS011;66124;51.146;17.072;2023-04-15T05:05:16;2.20;;;1.80;;
77152;SDS011;66124;51.146;17.072;2023-04-15T05:07:45;2.60;;;2.10;;
77152;SDS011;66124;51.146;17.072;2023-04-15T05:10:15;4.10;;;2.50;;
77152;SDS011;66124;51.146;17.072;2023-04-15T05:12:44;2.70;;;1.70;;
77152;SDS011;66124;51.146;17.072;2023-04-15T05:15:14;3.50;;;2.50;;
77152;SDS011;66124;51.146;17.072;2023-04-15T05:17:43;2.90;;;2.10;;
77152;SDS011;66124;51.146;17.072;2023-04-15T05:20:13;3.10;;;2.10;;
77152;SDS011;66124;51.146;17.072;2023-04-15T05:22:43;4.30;;;2.10;;
77152;SDS011;66124;51.146;17.072;2023-04-15T05:25:12;3.80;;;2.20;;
77152;SDS011;66124;51.146;17.072;2023-04-15T05:27:42;2.90;;;2.00;;
77152;SDS011;66124;51.146;17.072;2023-04-15T05:30:12;3.20;;;2.00;;
77152;SDS011;66124;51.146;17.072;2023-04-15T05:32:41;2.30;;;1.70;;
77152;SDS011;66124;51.146;17.072;2023-04-15T05:35:11;2.80;;;1.70;;
77152;SDS011;66124;51.146;17.072;2023-04-15T05:48:03;4.30;;;2.10;;
77152;SDS011;66124;51.146;17.072;2023-04-15T05:50:32;2.90;;;2.10;;
77152;SDS011;66124;51.146;17.072;2023-04-15T05:53:02;3.20;;;2.30;;
77152;SDS011;66124;51.146;17.072;2023-04-15T05:55:31;3.70;;;2.40;;
77152;SDS011;66124;51.146;17.072;2023-04-15T05:58:01;3.20;;;2.50;;
77152;SDS011;66124;51.146;17.072;2023-04-15T06:00:31;4.30;;;2.80;;
77152;SDS011;66124;51.146;17.072;2023-04-15T06:03:01;4.00;;;2.60;;
77152;SDS011;66124;51.146;17.072;2023-04-15T06:05:31;3.90;;;2.10;;
77152;SDS011;66124;51.146;17.072;2023-04-15T06:08:00;4.60;;;2.40;;
77152;SDS011;66124;51.146;17.072;2023-04-15T06:10:29;2.80;;;2.00;;
77152;SDS011;66124;51.146;17.072;2023-04-15T06:12:59;2.50;;;1.80;;
77152;SDS011;66124;51.146;17.072;2023-04-15T06:15:28;2.80;;;2.10;;
77152;SDS011;66124;51.146;17.072;2023-04-15T06:17:58;2.70;;;1.60;;
77152;SDS011;66124;51.146;17.072;2023-04-15T06:20:27;2.80;;;1.40;;
77152;SDS011;66124;51.146;17.072;2023-04-15T06:22:57;1.80;;;1.60;;
77152;SDS011;66124;51.146;17.072;2023-04-15T06:25:26;1.80;;;0.90;;
77152;SDS011;66124;51.146;17.072;2023-04-15T06:27:56;1.70;;;0.90;;
77152;SDS011;66124;51.146;17.072;2023-04-15T06:30:25;0.80;;;0.80;;
77152;SDS011;66124;51.146;17.072;2023-04-15T06:32:55;1.30;;;0.90;;
77152;SDS011;66124;51.146;17.072;2023-04-15T06:35:24;1.50;;;0.90;;
77152;SDS011;66124;51.146;17.072;2023-04-15T06:37:53;1.20;;;0.80;;
77152;SDS011;66124;51.146;17.072;2023-04-15T06:40:23;3.90;;;0.90;;
77152;SDS011;66124;51.146;17.072;2023-04-15T06:42:52;1.30;;;0.80;;
77152;SDS011;66124;51.146;17.072;2023-04-15T06:45:22;1.10;;;0.90;;
77152;SDS011;66124;51.146;17.072;2023-04-15T06:47:51;1.20;;;0.80;;
77152;SDS011;66124;51.146;17.072;2023-04-15T06:50:20;1.00;;;0.90;;
77152;SDS011;66124;51.146;17.072;2023-04-15T06:52:50;1.10;;;0.80;;
77152;SDS011;66124;51.146;17.072;2023-04-15T06:55:20;0.70;;;0.70;;
77152;SDS011;66124;51.146;17.072;2023-04-15T06:57:50;0.40;;;0.40;;
77152;SDS011;66124;51.146;17.072;2023-04-15T07:10:13;0.90;;;0.50;;
77152;SDS011;66124;51.146;17.072;2023-04-15T07:12:40;0.30;;;0.30;;
77152;SDS011;66124;51.146;17.072;2023-04-15T07:15:09;0.60;;;0.50;;
77152;SDS011;66124;51.146;17.072;2023-04-15T07:17:37;0.80;;;0.60;;
77152;SDS011;66124;51.146;17.072;2023-04-15T07:20:07;0.80;;;0.60;;
77152;SDS011;66124;51.146;17.072;2023-04-15T07:22:35;1.50;;;0.80;;
77152;SDS011;66124;51.146;17.072;2023-04-15T07:25:04;0.80;;;0.60;;
77152;SDS011;66124;51.146;17.072;2023-04-15T07:27:33;0.60;;;0.50;;
77152;SDS011;66124;51.146;17.072;2023-04-15T07:39:43;1.10;;;0.60;;
77152;SDS011;66124;51.146;17.072;2023-04-15T07:42:15;1.30;;;0.60;;
77152;SDS011;66124;51.146;17.072;2023-04-15T07:44:46;1.20;;;0.80;;
77152;SDS011;66124;51.146;17.072;2023-04-15T07:47:17;1.00;;;0.80;;
77152;SDS011;66124;51.146;17.072;2023-04-15T07:49:49;0.80;;;0.80;;
77152;SDS011;66124;51.146;17.072;2023-04-15T07:52:19;1.20;;;0.70;;
77152;SDS011;66124;51.146;17.072;2023-04-15T07:54:48;1.20;;;0.70;;
77152;SDS011;66124;51.146;17.072;2023-04-15T07:57:17;0.80;;;0.60;;
77152;SDS011;66124;51.146;17.072;2023-04-15T07:59:47;2.30;;;0.80;;
77152;SDS011;66124;51.146;17.072;2023-04-15T08:02:16;1.00;;;0.50;;
77152;SDS011;66124;51.146;17.072;2023-04-15T08:04:46;0.80;;;0.60;;
77152;SDS011;66124;51.146;17.072;2023-04-15T08:07:15;0.60;;;0.60;;
77152;SDS011;66124;51.146;17.072;2023-04-15T08:09:44;0.90;;;0.50;;
77152;SDS011;66124;51.146;17.072;2023-04-15T08:12:14;1.40;;;0.80;;
77152;SDS011;66124;51.146;17.072;2023-04-15T08:14:43;0.60;;;0.50;;
77152;SDS011;66124;51.146;17.072;2023-04-15T08:17:13;1.90;;;0.60;;
77152;SDS011;66124;51.146;17.072;2023-04-15T08:19:42;0.60;;;0.60;;
77152;SDS011;66124;51.146;17.072;2023-04-15T08:22:11;0.70;;;0.50;;
77152;SDS011;66124;51.146;17.072;2023-04-15T08:24:41;1.10;;;0.50;;
77152;SDS011;66124;51.146;17.072;2023-04-15T08:27:11;0.40;;;0.30;;
77152;SDS011;66124;51.146;17.072;2023-04-15T08:29:40;0.30;;;0.30;;
77152;SDS011;66124;51.146;17.072;2023-04-15T08:32:09;0.90;;;0.60;;
77152;SDS011;66124;51.146;17.072;2023-04-15T08:34:39;0.60;;;0.50;;
77152;SDS011;66124;51.146;17.072;2023-04-15T08:37:08;0.90;;;0.60;;
77152;SDS011;66124;51.146;17.072;2023-04-15T08:39:38;0.70;;;0.60;;
77152;SDS011;66124;51.146;17.072;2023-04-15T08:42:10;1.00;;;0.50;;
77152;SDS011;66124;51.146;17.072;2023-04-15T08:44:43;1.30;;;1.10;;
77152;SDS011;66124;51.146;17.072;2023-04-15T08:47:14;0.70;;;0.50;;
77152;SDS011;66124;51.146;17.072;2023-04-15T08:49:47;0.10;;;0.10;;
77152;SDS011;66124;51.146;17.072;2023-04-15T09:00:21;0.60;;;0.50;;
77152;SDS011;66124;51.146;17.072;2023-04-15T09:02:51;0.80;;;0.50;;
77152;SDS011;66124;51.146;17.072;2023-04-15T09:05:21;0.80;;;0.60;;
77152;SDS011;66124;51.146;17.072;2023-04-15T09:07:51;0.40;;;0.40;;
77152;SDS011;66124;51.146;17.072;2023-04-15T09:10:20;0.30;;;0.30;;
77152;SDS011;66124;51.146;17.072;2023-04-15T09:12:49;0.70;;;0.30;;
77152;SDS011;66124;51.146;17.072;2023-04-15T09:15:19;0.60;;;0.40;;
77152;SDS011;66124;51.146;17.072;2023-04-15T09:17:50;0.90;;;0.40;;
77152;SDS011;66124;51.146;17.072;2023-04-15T09:20:19;0.50;;;0.40;;
77152;SDS011;66124;51.146;17.072;2023-04-15T09:22:49;1.40;;;0.40;;
77152;SDS011;66124;51.146;17.072;2023-04-15T09:25:27;0.70;;;0.40;;
77152;SDS011;66124;51.146;17.072;2023-04-15T09:27:57;0.50;;;0.40;;
77152;SDS011;66124;51.146;17.072;2023-04-15T09:30:28;0.40;;;0.40;;
77152;SDS011;66124;51.146;17.072;2023-04-15T09:32:57;0.60;;;0.40;;
77152;SDS011;66124;51.146;17.072;2023-04-15T09:35:28;0.20;;;0.20;;
77152;SDS011;66124;51.146;17.072;2023-04-15T09:38:02;0.30;;;0.30;;
77152;SDS011;66124;51.146;17.072;2023-04-15T09:40:33;4.80;;;2.40;;
77152;SDS011;66124;51.146;17.072;2023-04-15T09:43:05;0.60;;;0.30;;
77152;SDS011;66124;51.146;17.072;2023-04-15T09:45:35;0.30;;;0.30;;
77152;SDS011;66124;51.146;17.072;2023-04-15T09:48:16;0.80;;;0.70;;
77152;SDS011;66124;51.146;17.072;2023-04-15T09:50:47;0.90;;;0.50;;
77152;SDS011;66124;51.146;17.072;2023-04-15T09:53:17;0.80;;;0.40;;
77152;SDS011;66124;51.146;17.072;2023-04-15T09:55:50;0.50;;;0.40;;
77152;SDS011;66124;51.146;17.072;2023-04-15T09:58:21;0.80;;;0.50;;
77152;SDS011;66124;51.146;17.072;2023-04-15T10:00:52;0.90;;;0.50;;
77152;SDS011;66124;51.146;17.072;2023-04-15T10:03:24;0.50;;;0.50;;
77152;SDS011;66124;51.146;17.072;2023-04-15T10:05:54;1.40;;;0.60;;
77152;SDS011;66124;51.146;17.072;2023-04-15T10:08:26;1.20;;;0.70;;
77152;SDS011;66124;51.146;17.072;2023-04-15T10:10:57;0.60;;;0.40;;
77152;SDS011;66124;51.146;17.072;2023-04-15T10:24:14;0.40;;;0.30;;
77152;SDS011;66124;51.146;17.072;2023-04-15T10:26:45;0.40;;;0.40;;
77152;SDS011;66124;51.146;17.072;2023-04-15T10:29:15;0.30;;;0.20;;
77152;SDS011;66124;51.146;17.072;2023-04-15T10:31:45;0.20;;;0.20;;
77152;SDS011;66124;51.146;17.072;2023-04-15T10:34:15;0.40;;;0.20;;
77152;SDS011;66124;51.146;17.072;2023-04-15T10:36:45;0.50;;;0.30;;
77152;SDS011;66124;51.146;17.072;2023-04-15T10:39:38;0.70;;;0.20;;
77152;SDS011;66124;51.146;17.072;2023-04-15T10:44:40;0.30;;;0.20;;
77152;SDS011;66124;51.146;17.072;2023-04-15T10:47:11;0.20;;;0.20;;
77152;SDS011;66124;51.146;17.072;2023-04-15T10:52:15;0.20;;;0.20;;
77152;SDS011;66124;51.146;17.072;2023-04-15T10:54:48;0.70;;;0.20;;
77152;SDS011;66124;51.146;17.072;2023-04-15T10:57:28;0.20;;;0.20;;
77152;SDS011;66124;51.146;17.072;2023-04-15T11:00:11;0.50;;;0.30;;
77152;SDS011;66124;51.146;17.072;2023-04-15T11:02:43;0.70;;;0.40;;
77152;SDS011;66124;51.146;17.072;2023-04-15T11:07:48;0.30;;;0.10;;
77152;SDS011;66124;51.146;17.072;2023-04-15T11:15:50;0.60;;;0.20;;
77152;SDS011;66124;51.146;17.072;2023-04-15T11:18:22;0.20;;;0.20;;
77152;SDS011;66124;51.146;17.072;2023-04-15T11:20:53;0.30;;;0.20;;
77152;SDS011;66124;51.146;17.072;2023-04-15T11:23:31;0.20;;;0.20;;
77152;SDS011;66124;51.146;17.072;2023-04-15T11:26:02;0.20;;;0.20;;
77152;SDS011;66124;51.146;17.072;2023-04-15T11:28:33;0.50;;;0.20;;
77152;SDS011;66124;51.146;17.072;2023-04-15T11:31:07;0.50;;;0.20;;
77152;SDS011;66124;51.146;17.072;2023-04-15T11:33:43;0.40;;;0.20;;
77152;SDS011;66124;51.146;17.072;2023-04-15T11:49:58;0.30;;;0.20;;
77152;SDS011;66124;51.146;17.072;2023-04-15T11:52:42;0.40;;;0.40;;
77152;SDS011;66124;51.146;17.072;2023-04-15T11:55:21;0.30;;;0.30;;
77152;SDS011;66124;51.146;17.072;2023-04-15T11:58:04;0.50;;;0.40;;
77152;SDS011;66124;51.146;17.072;2023-04-15T12:03:12;0.20;;;0.20;;
77152;SDS011;66124;51.146;17.072;2023-04-15T12:08:52;0.40;;;0.40;;
77152;SDS011;66124;51.146;17.072;2023-04-15T12:11:35;0.50;;;0.40;;
77152;SDS011;66124;51.146;17.072;2023-04-15T12:14:10;0.30;;;0.30;;
77152;SDS011;66124;51.146;17.072;2023-04-15T12:16:47;0.30;;;0.30;;
77152;SDS011;66124;51.146;17.072;2023-04-15T12:19:21;0.50;;;0.20;;
77152;SDS011;66124;51.146;17.072;2023-04-15T12:21:52;0.40;;;0.40;;
77152;SDS011;66124;51.146;17.072;2023-04-15T12:24:24;0.30;;;0.30;;
77152;SDS011;66124;51.146;17.072;2023-04-15T12:26:54;0.30;;;0.30;;
77152;SDS011;66124;51.146;17.072;2023-04-15T12:29:26;0.80;;;0.50;;
77152;SDS011;66124;51.146;17.072;2023-04-15T12:31:57;0.40;;;0.40;;
77152;SDS011;66124;51.146;17.072;2023-04-15T12:34:32;1.20;;;0.50;;
77152;SDS011;66124;51.146;17.072;2023-04-15T12:37:04;0.50;;;0.50;;
77152;SDS011;66124;51.146;17.072;2023-04-15T12:39:36;0.50;;;0.40;;
77152;SDS011;66124;51.146;17.072;2023-04-15T12:42:06;0.30;;;0.30;;
77152;SDS011;66124;51.146;17.072;2023-04-15T12:44:37;0.50;;;0.30;;
77152;SDS011;66124;51.146;17.072;2023-04-15T12:47:07;0.40;;;0.40;;
77152;SDS011;66124;51.146;17.072;2023-04-15T12:49:37;1.10;;;0.70;;
77152;SDS011;66124;51.146;17.072;2023-04-15T12:52:07;0.80;;;0.50;;
77152;SDS011;66124;51.146;17.072;2023-04-15T12:54:38;0.50;;;0.50;;
77152;SDS011;66124;51.146;17.072;2023-04-15T12:57:07;1.50;;;1.00;;
77152;SDS011;66124;51.146;17.072;2023-04-15T12:59:37;0.60;;;0.30;;
77152;SDS011;66124;51.146;17.072;2023-04-15T13:09:31;1.00;;;0.70;;
77152;SDS011;66124;51.146;17.072;2023-04-15T13:12:00;0.90;;;0.70;;
77152;SDS011;66124;51.146;17.072;2023-04-15T13:14:30;0.60;;;0.60;;
77152;SDS011;66124;51.146;17.072;2023-04-15T13:16:59;0.60;;;0.60;;
77152;SDS011;66124;51.146;17.072;2023-04-15T13:19:29;1.00;;;0.70;;
77152;SDS011;66124;51.146;17.072;2023-04-15T13:21:59;0.60;;;0.50;;
77152;SDS011;66124;51.146;17.072;2023-04-15T13:24:29;0.70;;;0.50;;
77152;SDS011;66124;51.146;17.072;2023-04-15T13:26:58;0.70;;;0.50;;
77152;SDS011;66124;51.146;17.072;2023-04-15T13:29:28;0.60;;;0.60;;
77152;SDS011;66124;51.146;17.072;2023-04-15T13:31:58;0.70;;;0.50;;
77152;SDS011;66124;51.146;17.072;2023-04-15T13:34:27;0.50;;;0.50;;
77152;SDS011;66124;51.146;17.072;2023-04-15T13:36:57;0.60;;;0.50;;
77152;SDS011;66124;51.146;17.072;2023-04-15T13:39:32;1.10;;;0.70;;
77152;SDS011;66124;51.146;17.072;2023-04-15T13:42:02;0.50;;;0.50;;
77152;SDS011;66124;51.146;17.072;2023-04-15T13:44:32;1.10;;;0.50;;
77152;SDS011;66124;51.146;17.072;2023-04-15T13:47:01;0.60;;;0.60;;
77152;SDS011;66124;51.146;17.072;2023-04-15T13:49:31;0.60;;;0.60;;
77152;SDS011;66124;51.146;17.072;2023-04-15T13:52:00;0.80;;;0.60;;
77152;SDS011;66124;51.146;17.072;2023-04-15T13:54:30;0.90;;;0.80;;
77152;SDS011;66124;51.146;17.072;2023-04-15T13:56:59;1.30;;;0.60;;
77152;SDS011;66124;51.146;17.072;2023-04-15T13:59:29;0.70;;;0.60;;
77152;SDS011;66124;51.146;17.072;2023-04-15T14:01:59;0.70;;;0.40;;
77152;SDS011;66124;51.146;17.072;2023-04-15T14:04:29;0.90;;;0.50;;
77152;SDS011;66124;51.146;17.072;2023-04-15T14:06:59;1.10;;;0.40;;
77152;SDS011;66124;51.146;17.072;2023-04-15T14:09:28;0.40;;;0.40;;
77152;SDS011;66124;51.146;17.072;2023-04-15T14:11:57;0.60;;;0.60;;
77152;SDS011;66124;51.146;17.072;2023-04-15T14:14:27;0.40;;;0.40;;
77152;SDS011;66124;51.146;17.072;2023-04-15T14:16:56;1.20;;;0.50;;
77152;SDS011;66124;51.146;17.072;2023-04-15T14:19:26;0.80;;;0.50;;
77152;SDS011;66124;51.146;17.072;2023-04-15T14:29:32;1.70;;;0.80;;
77152;SDS011;66124;51.146;17.072;2023-04-15T14:32:01;0.80;;;0.80;;
77152;SDS011;66124;51.146;17.072;2023-04-15T14:34:30;0.70;;;0.70;;
77152;SDS011;66124;51.146;17.072;2023-04-15T14:37:00;0.60;;;0.60;;
77152;SDS011;66124;51.146;17.072;2023-04-15T14:39:30;1.30;;;0.90;;
77152;SDS011;66124;51.146;17.072;2023-04-15T14:42:00;1.20;;;1.00;;
77152;SDS011;66124;51.146;17.072;2023-04-15T14:44:29;0.70;;;0.70;;
77152;SDS011;66124;51.146;17.072;2023-04-15T14:46:59;0.90;;;0.80;;
77152;SDS011;66124;51.146;17.072;2023-04-15T14:49:28;0.60;;;0.60;;
77152;SDS011;66124;51.146;17.072;2023-04-15T14:51:58;1.00;;;0.80;;
77152;SDS011;66124;51.146;17.072;2023-04-15T14:54:27;0.60;;;0.60;;
77152;SDS011;66124;51.146;17.072;2023-04-15T14:56:57;0.60;;;0.60;;
77152;SDS011;66124;51.146;17.072;2023-04-15T14:59:26;1.20;;;0.70;;
77152;SDS011;66124;51.146;17.072;2023-04-15T15:01:56;1.20;;;0.90;;
77152;SDS011;66124;51.146;17.072;2023-04-15T15:04:25;0.70;;;0.70;;
77152;SDS011;66124;51.146;17.072;2023-04-15T15:06:55;0.80;;;0.70;;
77152;SDS011;66124;51.146;17.072;2023-04-15T15:09:25;0.90;;;0.90;;
77152;SDS011;66124;51.146;17.072;2023-04-15T15:11:55;1.10;;;0.80;;
77152;SDS011;66124;51.146;17.072;2023-04-15T15:14:24;1.20;;;0.60;;
77152;SDS011;66124;51.146;17.072;2023-04-15T15:16:54;0.50;;;0.50;;
77152;SDS011;66124;51.146;17.072;2023-04-15T15:19:23;0.60;;;0.60;;
77152;SDS011;66124;51.146;17.072;2023-04-15T15:21:53;1.10;;;0.80;;
77152;SDS011;66124;51.146;17.072;2023-04-15T15:24:23;1.50;;;0.90;;
77152;SDS011;66124;51.146;17.072;2023-04-15T15:26:52;1.00;;;0.90;;
77152;SDS011;66124;51.146;17.072;2023-04-15T15:29:22;0.80;;;0.80;;
77152;SDS011;66124;51.146;17.072;2023-04-15T15:31:51;0.90;;;0.90;;
77152;SDS011;66124;51.146;17.072;2023-04-15T15:34:20;0.70;;;0.70;;
77152;SDS011;66124;51.146;17.072;2023-04-15T15:36:50;0.80;;;0.80;;
77152;SDS011;66124;51.146;17.072;2023-04-15T15:39:20;1.40;;;1.00;;
77152;SDS011;66124;51.146;17.072;2023-04-15T15:49:36;1.70;;;1.10;;
77152;SDS011;66124;51.146;17.072;2023-04-15T15:52:06;1.60;;;0.70;;
77152;SDS011;66124;51.146;17.072;2023-04-15T15:54:35;0.90;;;0.80;;
77152;SDS011;66124;51.146;17.072;2023-04-15T15:57:06;1.10;;;1.00;;
77152;SDS011;66124;51.146;17.072;2023-04-15T15:59:35;1.20;;;1.00;;
77152;SDS011;66124;51.146;17.072;2023-04-15T16:02:05;1.00;;;0.90;;
77152;SDS011;66124;51.146;17.072;2023-04-15T16:04:36;1.00;;;0.80;;
77152;SDS011;66124;51.146;17.072;2023-04-15T16:07:06;1.20;;;1.10;;
77152;SDS011;66124;51.146;17.072;2023-04-15T16:09:36;1.90;;;0.90;;
77152;SDS011;66124;51.146;17.072;2023-04-15T16:12:05;1.20;;;1.10;;
77152;SDS011;66124;51.146;17.072;2023-04-15T16:14:35;1.30;;;0.90;;
77152;SDS011;66124;51.146;17.072;2023-04-15T16:17:04;1.40;;;0.80;;
77152;SDS011;66124;51.146;17.072;2023-04-15T16:19:34;0.90;;;0.70;;
77152;SDS011;66124;51.146;17.072;2023-04-15T16:22:03;0.70;;;0.70;;
77152;SDS011;66124;51.146;17.072;2023-04-15T16:24:33;1.20;;;1.00;;
77152;SDS011;66124;51.146;17.072;2023-04-15T16:27:02;1.90;;;1.30;;
77152;SDS011;66124;51.146;17.072;2023-04-15T16:29:32;1.70;;;1.30;;
77152;SDS011;66124;51.146;17.072;2023-04-15T16:32:01;1.50;;;1.20;;
77152;SDS011;66124;51.146;17.072;2023-04-15T16:34:31;1.70;;;1.00;;
77152;SDS011;66124;51.146;17.072;2023-04-15T16:37:00;1.30;;;1.10;;
77152;SDS011;66124;51.146;17.072;2023-04-15T16:39:30;3.00;;;2.10;;
77152;SDS011;66124;51.146;17.072;2023-04-15T16:41:59;3.30;;;2.70;;
77152;SDS011;66124;51.146;17.072;2023-04-15T16:44:29;4.00;;;2.50;;
77152;SDS011;66124;51.146;17.072;2023-04-15T16:46:58;3.30;;;2.00;;
77152;SDS011;66124;51.146;17.072;2023-04-15T16:49:28;3.60;;;2.10;;
77152;SDS011;66124;51.146;17.072;2023-04-15T16:51:57;3.10;;;2.00;;
77152;SDS011;66124;51.146;17.072;2023-04-15T16:54:27;4.30;;;2.80;;
77152;SDS011;66124;51.146;17.072;2023-04-15T16:56:56;7.50;;;3.60;;
77152;SDS011;66124;51.146;17.072;2023-04-15T16:59:25;6.20;;;3.40;;
77152;SDS011;66124;51.146;17.072;2023-04-15T17:10:08;5.40;;;3.30;;
77152;SDS011;66124;51.146;17.072;2023-04-15T17:12:38;6.70;;;3.80;;
77152;SDS011;66124;51.146;17.072;2023-04-15T17:15:08;6.50;;;3.80;;